Menalon — SXCH — position and weather

sailwx.info

Track history (hours):
 
Tides and Currents Weather Stations Pressure Air Temp Water Temp Dewpoint Dewpoint Depression Visibility Wind Speed Wind Dir Waves Ship Positions

Menalon

Last reported at 2014-Aug-23 03:33 UTC. Time now 2014-Aug-23 07:36 UTC.
Position N 37°57' E 023°35'.

; draft 3.5 m.

Type: Ship (hazmat cat C). MMSI: 239741000.

Date/timePositionNaut miles runAvg speedWind from/ knotsBaromVisibWave heightAir tempDewpointWater temp
2014-Aug-23 03:33N 37°57' E 023°35'0 0.1
2014-Aug-23 02:33N 37°57' E 023°35'0 0.0
2014-Aug-23 01:33N 37°57' E 023°35'0 0.0
2014-Aug-23 00:33N 37°57' E 023°35'0 0.0
2014-Aug-22 23:33N 37°57' E 023°35'0 0.1
2014-Aug-22 22:33N 37°57' E 023°35'0 0.1
2014-Aug-22 21:33N 37°57' E 023°35'0 0.0
2014-Aug-22 20:33N 37°57' E 023°35'0 0.0
2014-Aug-22 19:33N 37°57' E 023°35'1 1.5
2014-Aug-22 18:33N 37°56' E 023°34'2 2.1
2014-Aug-22 17:33N 37°54' E 023°33'0 0.0
2014-Aug-22 16:33N 37°54' E 023°33'0 0.0
2014-Aug-22 15:33N 37°54' E 023°33'3 3.4
2014-Aug-22 14:33N 37°57' E 023°34'0 0.0
2014-Aug-22 13:33N 37°57' E 023°34'0 0.0
2014-Aug-22 12:33N 37°57' E 023°34'0 0.0
2014-Aug-22 11:33N 37°57' E 023°34'0 0.0
2014-Aug-22 10:33N 37°57' E 023°34'0 0.0
2014-Aug-22 09:33N 37°57' E 023°34'0 0.0
2014-Aug-22 08:33N 37°57' E 023°34'0 0.0
2014-Aug-22 07:33N 37°57' E 023°34'0 0.0
2014-Aug-22 06:33N 37°57' E 023°34'0 0.0
2014-Aug-22 05:33N 37°57' E 023°34'0 0.0
2014-Aug-22 04:33N 37°57' E 023°34'0 0.0
2014-Aug-22 03:33N 37°57' E 023°34'0 0.0
2014-Aug-22 02:33N 37°57' E 023°34'0 0.0
2014-Aug-22 01:33N 37°57' E 023°34'0 0.0
2014-Aug-22 00:33N 37°57' E 023°34'0 0.1
2014-Aug-21 23:33N 37°57' E 023°34'0 0.1
2014-Aug-21 22:33N 37°57' E 023°34'0 0.0
2014-Aug-21 21:33N 37°57' E 023°34'0 0.0
2014-Aug-21 20:33N 37°57' E 023°34'0 0.0
2014-Aug-21 19:33N 37°57' E 023°34'0 0.0
2014-Aug-21 18:33N 37°57' E 023°34'0 0.0
2014-Aug-21 17:33N 37°57' E 023°34'0 0.0
2014-Aug-21 16:33N 37°57' E 023°34'0 0.0
2014-Aug-21 15:33N 37°57' E 023°34'1 0.8
2014-Aug-21 14:33N 37°57' E 023°35'0 0.0
2014-Aug-21 13:33N 37°57' E 023°35'0 0.0
2014-Aug-21 12:33N 37°57' E 023°35'0 0.0
2014-Aug-21 11:33N 37°57' E 023°35'0 0.0
2014-Aug-21 10:33N 37°57' E 023°35'0 0.0
2014-Aug-21 09:33N 37°57' E 023°35'0 0.5
2014-Aug-21 08:33N 37°57' E 023°35'0 0.0
2014-Aug-21 07:33N 37°57' E 023°35'0 0.1
2014-Aug-21 06:33N 37°57' E 023°35'0 0.5
2014-Aug-21 05:33N 37°57' E 023°35'0 0.0
2014-Aug-21 04:33N 37°57' E 023°35'4 4.0
2014-Aug-21 03:33N 37°53' E 023°34'0 0.3
2014-Aug-21 02:33N 37°53' E 023°33'0 0.1
2014-Aug-21 01:33N 37°53' E 023°33'0 0.1
2014-Aug-21 00:33N 37°53' E 023°33'0 0.2
2014-Aug-20 23:33N 37°53' E 023°33'4 4.2
2014-Aug-20 22:33N 37°52' E 023°28'19 4.5
2014-Aug-20 18:29N 37°55' E 023°05'17 1.3
2014-Aug-20 05:22N 37°52' E 023°26'810.3
2014-Aug-20 04:33N 37°57' E 023°35'0 0.3
2014-Aug-20 03:33N 37°57' E 023°35'0 0.1
2014-Aug-20 02:33N 37°57' E 023°35'0 0.0
2014-Aug-20 01:33N 37°57' E 023°35'0 0.0
2014-Aug-20 00:33N 37°57' E 023°35'0 0.0
2014-Aug-19 23:33N 37°57' E 023°35'0 0.0
2014-Aug-19 22:33N 37°57' E 023°35'0 0.0
2014-Aug-19 21:33N 37°57' E 023°35'0 0.0
2014-Aug-19 20:33N 37°57' E 023°35'0 0.0
2014-Aug-19 19:33N 37°57' E 023°35'0 0.0
2014-Aug-19 18:33N 37°57' E 023°35'0 0.0
2014-Aug-19 17:33N 37°57' E 023°35'0 0.0
2014-Aug-19 16:33N 37°57' E 023°35'0 0.0
2014-Aug-19 15:32N 37°57' E 023°35'0 0.0
2014-Aug-19 14:33N 37°57' E 023°35'0 0.0
2014-Aug-19 13:33N 37°57' E 023°35'0 0.0
2014-Aug-19 12:32N 37°57' E 023°35'1 0.9
2014-Aug-19 11:33N 37°57' E 023°36'0 0.1
2014-Aug-19 10:14N 37°57' E 023°36'0 0.0
2014-Aug-19 09:32N 37°57' E 023°36'1 0.8
2014-Aug-19 08:33N 37°57' E 023°35'0 0.0
2014-Aug-19 07:33N 37°57' E 023°35'3 3.4
2014-Aug-19 06:33N 37°54' E 023°34'3 2.9
2014-Aug-19 05:33N 37°57' E 023°35'1 0.6
2014-Aug-19 04:33N 37°57' E 023°35'0 0.0
2014-Aug-19 03:33N 37°57' E 023°35'0 0.0
2014-Aug-19 02:33N 37°57' E 023°35'0 0.0
2014-Aug-19 01:33N 37°57' E 023°35'0 0.0
2014-Aug-19 00:33N 37°57' E 023°35'0 0.0
2014-Aug-18 23:33N 37°57' E 023°35'0 0.0
2014-Aug-18 22:33N 37°57' E 023°35'0 0.0
2014-Aug-18 21:33N 37°57' E 023°35'0 0.1
2014-Aug-18 20:33N 37°57' E 023°35'0 0.0
2014-Aug-18 19:33N 37°57' E 023°35'0 0.0
2014-Aug-18 18:33N 37°57' E 023°35'0 0.0
2014-Aug-18 17:33N 37°57' E 023°35'0 0.0
2014-Aug-18 16:33N 37°57' E 023°35'0 0.0
2014-Aug-18 15:33N 37°57' E 023°35'0 0.0
2014-Aug-18 14:31N 37°57' E 023°35'0 0.0
2014-Aug-18 13:33N 37°57' E 023°35'4 4.1
2014-Aug-18 12:33N 37°53' E 023°33'0 0.1
2014-Aug-18 11:33N 37°53' E 023°33'0 0.2
2014-Aug-18 10:33N 37°53' E 023°33'5 4.8
2014-Aug-18 09:33N 37°57' E 023°35'0 0.0
2014-Aug-18 08:33N 37°57' E 023°35'0 0.1
2014-Aug-18 07:33N 37°57' E 023°35'0 0.0
2014-Aug-18 06:33N 37°57' E 023°35'1 0.6
2014-Aug-18 05:33N 37°57' E 023°35'0 0.4
2014-Aug-18 04:33N 37°57' E 023°34'0 0.0
2014-Aug-18 03:33N 37°57' E 023°34'0 0.0
2014-Aug-18 02:33N 37°57' E 023°34'0 0.0
2014-Aug-18 01:30N 37°57' E 023°34'0 0.0
2014-Aug-18 00:32N 37°57' E 023°34'0 0.0
2014-Aug-17 18:33N 37°57' E 023°34'0 0.0
2014-Aug-17 17:33N 37°57' E 023°34'0 0.0
2014-Aug-17 16:33N 37°57' E 023°34'0 0.0
2014-Aug-17 15:33N 37°57' E 023°34'0 0.0
2014-Aug-17 14:33N 37°57' E 023°34'0 0.0
2014-Aug-17 13:33N 37°57' E 023°34'0 0.0
2014-Aug-17 12:33N 37°57' E 023°34'0 0.0
2014-Aug-17 11:33N 37°57' E 023°34'0 0.0
2014-Aug-17 10:33N 37°57' E 023°34'0 0.0
2014-Aug-17 09:33N 37°57' E 023°34'0 0.0
2014-Aug-17 08:33N 37°57' E 023°34'0 0.0
2014-Aug-17 07:33N 37°57' E 023°34'0 0.0
2014-Aug-17 06:33N 37°57' E 023°34'0 0.0
2014-Aug-17 05:33N 37°57' E 023°34'0 0.0
2014-Aug-17 04:33N 37°57' E 023°34'0 0.0
2014-Aug-17 03:33N 37°57' E 023°34'0 0.0
2014-Aug-17 02:33N 37°57' E 023°34'0 0.0
2014-Aug-17 01:33N 37°57' E 023°34'0 0.0
2014-Aug-17 00:33N 37°57' E 023°34'0 0.1
2014-Aug-16 23:33N 37°57' E 023°34'8 7.8
2014-Aug-16 22:33N 37°52' E 023°27'18 8.0
2014-Aug-16 20:23N 37°55' E 023°05'0 0.0
2014-Aug-16 19:33N 37°55' E 023°05'0 0.0
2014-Aug-16 18:33N 37°55' E 023°05'0 0.0
2014-Aug-16 17:25N 37°55' E 023°05'0 0.0
2014-Aug-16 16:31N 37°55' E 023°05'0 0.0
2014-Aug-16 15:32N 37°55' E 023°05'0 0.0
2014-Aug-16 14:20N 37°55' E 023°05'0 0.1
2014-Aug-16 13:31N 37°55' E 023°05'1 0.1
2014-Aug-15 18:11N 37°54' E 023°04'0 0.0
2014-Aug-15 17:33N 37°54' E 023°04'0 0.1
2014-Aug-15 16:33N 37°54' E 023°04'0 0.0
2014-Aug-15 13:12N 37°54' E 023°04'0 0.0
2014-Aug-15 12:30N 37°54' E 023°04'15 2.6
2014-Aug-15 06:33N 37°52' E 023°23'1211.6
2014-Aug-15 05:33N 37°48' E 023°37'1110.8
2014-Aug-15 04:33N 37°40' E 023°45'1211.6
2014-Aug-15 03:29N 37°27' E 023°44'1111.5
2014-Aug-15 02:33N 37°17' E 023°43'1211.1
2014-Aug-15 01:30N 37°05' E 023°41'1211.4
2014-Aug-15 00:27N 36°53' E 023°40'1211.7
2014-Aug-14 23:28N 36°41' E 023°39'3611.6
2014-Aug-14 20:21N 36°06' E 023°35'1011.5
2014-Aug-14 19:29N 35°56' E 023°34'1111.6
2014-Aug-14 18:33N 35°45' E 023°33'20 0.7
2014-Aug-13 12:28N 36°05' E 023°35'2410.5
2014-Aug-13 10:11N 36°28' E 023°37'710.6
2014-Aug-13 09:33N 36°35' E 023°38'1010.4
2014-Aug-13 08:33N 36°45' E 023°39'1110.6
2014-Aug-13 07:30N 36°57' E 023°39'1111.0
2014-Aug-13 06:31N 37°07' E 023°40'2210.9
2014-Aug-13 04:32N 37°29' E 023°41'  
Track history (hours):
 
Tides and Currents Weather Stations Pressure Air Temp Water Temp Dewpoint Dewpoint Depression Visibility Wind Speed Wind Dir Waves Ship Positions

Menalon

Last reported at 2014-Aug-23 03:33 UTC. Time now 2014-Aug-23 07:36 UTC.
Position N 37°57' E 023°35'.

; draft 3.5 m.

Type: Ship (hazmat cat C). MMSI: 239741000.

Date/timePositionNaut miles runAvg speedWind from/ knotsBaromVisibWave heightAir tempDewpointWater temp
2014-Aug-23 03:33N 37°57' E 023°35'0 0.1
2014-Aug-23 02:33N 37°57' E 023°35'0 0.0
2014-Aug-23 01:33N 37°57' E 023°35'0 0.0
2014-Aug-23 00:33N 37°57' E 023°35'0 0.0
2014-Aug-22 23:33N 37°57' E 023°35'0 0.1
2014-Aug-22 22:33N 37°57' E 023°35'0 0.1
2014-Aug-22 21:33N 37°57' E 023°35'0 0.0
2014-Aug-22 20:33N 37°57' E 023°35'0 0.0
2014-Aug-22 19:33N 37°57' E 023°35'1 1.5
2014-Aug-22 18:33N 37°56' E 023°34'2 2.1
2014-Aug-22 17:33N 37°54' E 023°33'0 0.0
2014-Aug-22 16:33N 37°54' E 023°33'0 0.0
2014-Aug-22 15:33N 37°54' E 023°33'3 3.4
2014-Aug-22 14:33N 37°57' E 023°34'0 0.0
2014-Aug-22 13:33N 37°57' E 023°34'0 0.0
2014-Aug-22 12:33N 37°57' E 023°34'0 0.0
2014-Aug-22 11:33N 37°57' E 023°34'0 0.0
2014-Aug-22 10:33N 37°57' E 023°34'0 0.0
2014-Aug-22 09:33N 37°57' E 023°34'0 0.0
2014-Aug-22 08:33N 37°57' E 023°34'0 0.0
2014-Aug-22 07:33N 37°57' E 023°34'0 0.0
2014-Aug-22 06:33N 37°57' E 023°34'0 0.0
2014-Aug-22 05:33N 37°57' E 023°34'0 0.0
2014-Aug-22 04:33N 37°57' E 023°34'0 0.0
2014-Aug-22 03:33N 37°57' E 023°34'0 0.0
2014-Aug-22 02:33N 37°57' E 023°34'0 0.0
2014-Aug-22 01:33N 37°57' E 023°34'0 0.0
2014-Aug-22 00:33N 37°57' E 023°34'0 0.1
2014-Aug-21 23:33N 37°57' E 023°34'0 0.1
2014-Aug-21 22:33N 37°57' E 023°34'0 0.0
2014-Aug-21 21:33N 37°57' E 023°34'0 0.0
2014-Aug-21 20:33N 37°57' E 023°34'0 0.0
2014-Aug-21 19:33N 37°57' E 023°34'0 0.0
2014-Aug-21 18:33N 37°57' E 023°34'0 0.0
2014-Aug-21 17:33N 37°57' E 023°34'0 0.0
2014-Aug-21 16:33N 37°57' E 023°34'0 0.0
2014-Aug-21 15:33N 37°57' E 023°34'1 0.8
2014-Aug-21 14:33N 37°57' E 023°35'0 0.0
2014-Aug-21 13:33N 37°57' E 023°35'0 0.0
2014-Aug-21 12:33N 37°57' E 023°35'0 0.0
2014-Aug-21 11:33N 37°57' E 023°35'0 0.0
2014-Aug-21 10:33N 37°57' E 023°35'0 0.0
2014-Aug-21 09:33N 37°57' E 023°35'0 0.5
2014-Aug-21 08:33N 37°57' E 023°35'0 0.0
2014-Aug-21 07:33N 37°57' E 023°35'0 0.1
2014-Aug-21 06:33N 37°57' E 023°35'0 0.5
2014-Aug-21 05:33N 37°57' E 023°35'0 0.0
2014-Aug-21 04:33N 37°57' E 023°35'4 4.0
2014-Aug-21 03:33N 37°53' E 023°34'0 0.3
2014-Aug-21 02:33N 37°53' E 023°33'0 0.1
2014-Aug-21 01:33N 37°53' E 023°33'0 0.1
2014-Aug-21 00:33N 37°53' E 023°33'0 0.2
2014-Aug-20 23:33N 37°53' E 023°33'4 4.2
2014-Aug-20 22:33N 37°52' E 023°28'19 4.5
2014-Aug-20 18:29N 37°55' E 023°05'17 1.3
2014-Aug-20 05:22N 37°52' E 023°26'810.3
2014-Aug-20 04:33N 37°57' E 023°35'0 0.3
2014-Aug-20 03:33N 37°57' E 023°35'0 0.1
2014-Aug-20 02:33N 37°57' E 023°35'0 0.0
2014-Aug-20 01:33N 37°57' E 023°35'0 0.0
2014-Aug-20 00:33N 37°57' E 023°35'0 0.0
2014-Aug-19 23:33N 37°57' E 023°35'0 0.0
2014-Aug-19 22:33N 37°57' E 023°35'0 0.0
2014-Aug-19 21:33N 37°57' E 023°35'0 0.0
2014-Aug-19 20:33N 37°57' E 023°35'0 0.0
2014-Aug-19 19:33N 37°57' E 023°35'0 0.0
2014-Aug-19 18:33N 37°57' E 023°35'0 0.0
2014-Aug-19 17:33N 37°57' E 023°35'0 0.0
2014-Aug-19 16:33N 37°57' E 023°35'0 0.0
2014-Aug-19 15:32N 37°57' E 023°35'0 0.0
2014-Aug-19 14:33N 37°57' E 023°35'0 0.0
2014-Aug-19 13:33N 37°57' E 023°35'0 0.0
2014-Aug-19 12:32N 37°57' E 023°35'1 0.9
2014-Aug-19 11:33N 37°57' E 023°36'0 0.1
2014-Aug-19 10:14N 37°57' E 023°36'0 0.0
2014-Aug-19 09:32N 37°57' E 023°36'1 0.8
2014-Aug-19 08:33N 37°57' E 023°35'0 0.0
2014-Aug-19 07:33N 37°57' E 023°35'3 3.4
2014-Aug-19 06:33N 37°54' E 023°34'3 2.9
2014-Aug-19 05:33N 37°57' E 023°35'1 0.6
2014-Aug-19 04:33N 37°57' E 023°35'0 0.0
2014-Aug-19 03:33N 37°57' E 023°35'0 0.0
2014-Aug-19 02:33N 37°57' E 023°35'0 0.0
2014-Aug-19 01:33N 37°57' E 023°35'0 0.0
2014-Aug-19 00:33N 37°57' E 023°35'0 0.0
2014-Aug-18 23:33N 37°57' E 023°35'0 0.0
2014-Aug-18 22:33N 37°57' E 023°35'0 0.0
2014-Aug-18 21:33N 37°57' E 023°35'0 0.1
2014-Aug-18 20:33N 37°57' E 023°35'0 0.0
2014-Aug-18 19:33N 37°57' E 023°35'0 0.0
2014-Aug-18 18:33N 37°57' E 023°35'0 0.0
2014-Aug-18 17:33N 37°57' E 023°35'0 0.0
2014-Aug-18 16:33N 37°57' E 023°35'0 0.0
2014-Aug-18 15:33N 37°57' E 023°35'0 0.0
2014-Aug-18 14:31N 37°57' E 023°35'0 0.0
2014-Aug-18 13:33N 37°57' E 023°35'4 4.1
2014-Aug-18 12:33N 37°53' E 023°33'0 0.1
2014-Aug-18 11:33N 37°53' E 023°33'0 0.2
2014-Aug-18 10:33N 37°53' E 023°33'5 4.8
2014-Aug-18 09:33N 37°57' E 023°35'0 0.0
2014-Aug-18 08:33N 37°57' E 023°35'0 0.1
2014-Aug-18 07:33N 37°57' E 023°35'0 0.0
2014-Aug-18 06:33N 37°57' E 023°35'1 0.6
2014-Aug-18 05:33N 37°57' E 023°35'0 0.4
2014-Aug-18 04:33N 37°57' E 023°34'0 0.0
2014-Aug-18 03:33N 37°57' E 023°34'0 0.0
2014-Aug-18 02:33N 37°57' E 023°34'0 0.0
2014-Aug-18 01:30N 37°57' E 023°34'0 0.0
2014-Aug-18 00:32N 37°57' E 023°34'0 0.0
2014-Aug-17 18:33N 37°57' E 023°34'0 0.0
2014-Aug-17 17:33N 37°57' E 023°34'0 0.0
2014-Aug-17 16:33N 37°57' E 023°34'0 0.0
2014-Aug-17 15:33N 37°57' E 023°34'0 0.0
2014-Aug-17 14:33N 37°57' E 023°34'0 0.0
2014-Aug-17 13:33N 37°57' E 023°34'0 0.0
2014-Aug-17 12:33N 37°57' E 023°34'0 0.0
2014-Aug-17 11:33N 37°57' E 023°34'0 0.0
2014-Aug-17 10:33N 37°57' E 023°34'0 0.0
2014-Aug-17 09:33N 37°57' E 023°34'0 0.0
2014-Aug-17 08:33N 37°57' E 023°34'0 0.0
2014-Aug-17 07:33N 37°57' E 023°34'0 0.0
2014-Aug-17 06:33N 37°57' E 023°34'0 0.0
2014-Aug-17 05:33N 37°57' E 023°34'0 0.0
2014-Aug-17 04:33N 37°57' E 023°34'0 0.0
2014-Aug-17 03:33N 37°57' E 023°34'0 0.0
2014-Aug-17 02:33N 37°57' E 023°34'0 0.0
2014-Aug-17 01:33N 37°57' E 023°34'0 0.0
2014-Aug-17 00:33N 37°57' E 023°34'0 0.1
2014-Aug-16 23:33N 37°57' E 023°34'8 7.8
2014-Aug-16 22:33N 37°52' E 023°27'18 8.0
2014-Aug-16 20:23N 37°55' E 023°05'0 0.0
2014-Aug-16 19:33N 37°55' E 023°05'0 0.0
2014-Aug-16 18:33N 37°55' E 023°05'0 0.0
2014-Aug-16 17:25N 37°55' E 023°05'0 0.0
2014-Aug-16 16:31N 37°55' E 023°05'0 0.0
2014-Aug-16 15:32N 37°55' E 023°05'0 0.0
2014-Aug-16 14:20N 37°55' E 023°05'0 0.1
2014-Aug-16 13:31N 37°55' E 023°05'1 0.1
2014-Aug-15 18:11N 37°54' E 023°04'0 0.0
2014-Aug-15 17:33N 37°54' E 023°04'0 0.1
2014-Aug-15 16:33N 37°54' E 023°04'0 0.0
2014-Aug-15 13:12N 37°54' E 023°04'0 0.0
2014-Aug-15 12:30N 37°54' E 023°04'15 2.6
2014-Aug-15 06:33N 37°52' E 023°23'1211.6
2014-Aug-15 05:33N 37°48' E 023°37'1110.8
2014-Aug-15 04:33N 37°40' E 023°45'1211.6
2014-Aug-15 03:29N 37°27' E 023°44'1111.5
2014-Aug-15 02:33N 37°17' E 023°43'1211.1
2014-Aug-15 01:30N 37°05' E 023°41'1211.4
2014-Aug-15 00:27N 36°53' E 023°40'1211.7
2014-Aug-14 23:28N 36°41' E 023°39'3611.6
2014-Aug-14 20:21N 36°06' E 023°35'1011.5
2014-Aug-14 19:29N 35°56' E 023°34'1111.6
2014-Aug-14 18:33N 35°45' E 023°33'20 0.7
2014-Aug-13 12:28N 36°05' E 023°35'2410.5
2014-Aug-13 10:11N 36°28' E 023°37'710.6
2014-Aug-13 09:33N 36°35' E 023°38'1010.4
2014-Aug-13 08:33N 36°45' E 023°39'1110.6
2014-Aug-13 07:30N 36°57' E 023°39'1111.0
2014-Aug-13 06:31N 37°07' E 023°40'2210.9
2014-Aug-13 04:32N 37°29' E 023°41'  

Dump ship's entire track history